createdAt,value
2023-07-24T00:00:06.278Z,99168.69
2023-07-24T00:03:09.447Z,99178.06
2023-07-24T00:06:13.629Z,99178.22
2023-07-24T00:09:16.425Z,99173.38
2023-07-24T00:12:19.353Z,99179.38
2023-07-24T00:15:22.338Z,99167.53
2023-07-24T00:18:25.208Z,99163.00
2023-07-24T00:21:29.462Z,99167.69
2023-07-24T00:24:32.542Z,99166.66
2023-07-24T00:27:35.459Z,99166.66
2023-07-24T00:30:38.280Z,99165.53
2023-07-24T00:33:41.165Z,99166.34
2023-07-24T00:36:45.439Z,99169.19
2023-07-24T00:39:48.491Z,99168.34
2023-07-24T00:42:51.259Z,99173.69
2023-07-24T00:45:54.143Z,99172.81
2023-07-24T00:48:56.986Z,99170.69
2023-07-24T00:52:01.273Z,99166.97
2023-07-24T00:55:04.280Z,99168.97
2023-07-24T00:58:07.252Z,99172.16
2023-07-24T01:01:11.817Z,99170.97
2023-07-24T01:04:15.409Z,99179.34
2023-07-24T01:07:19.651Z,99174.47
2023-07-24T01:10:22.536Z,99180.84
2023-07-24T01:13:26.940Z,99178.50
2023-07-24T01:16:33.816Z,99180.19
2023-07-24T01:19:38.833Z,99186.09
2023-07-24T01:22:50.119Z,99189.31
2023-07-24T01:25:58.045Z,99193.56
2023-07-24T01:29:00.811Z,99192.94
2023-07-24T01:32:03.676Z,99188.06
2023-07-24T01:35:07.270Z,99187.56
2023-07-24T01:38:10.390Z,99188.06
2023-07-24T01:41:14.826Z,99181.22
2023-07-24T01:44:17.683Z,99190.09
2023-07-24T01:47:20.543Z,99184.59
2023-07-24T01:50:23.411Z,99188.09
2023-07-24T01:53:26.406Z,99184.75
2023-07-24T01:56:30.935Z,99189.75
2023-07-24T01:59:34.105Z,99188.94
2023-07-24T02:02:36.961Z,99191.78
2023-07-24T02:05:39.779Z,99195.47
2023-07-24T02:08:46.660Z,99198.13
2023-07-24T02:11:50.829Z,99203.13
2023-07-24T02:14:54.715Z,99205.28
2023-07-24T02:17:57.630Z,99207.84
2023-07-24T02:21:00.455Z,99205.28
2023-07-24T02:24:03.281Z,99201.97
2023-07-24T02:27:08.499Z,99211.16
2023-07-24T02:30:11.726Z,99210.34
2023-07-24T02:33:14.500Z,99215.16
2023-07-24T02:36:17.295Z,99226.03
2023-07-24T02:39:20.032Z,99224.88
2023-07-24T02:42:24.280Z,99221.38
2023-07-24T02:45:27.086Z,99218.00
2023-07-24T02:48:30.195Z,99217.34
2023-07-24T02:51:33.083Z,99222.22
2023-07-24T02:54:35.845Z,99213.34
2023-07-24T02:57:40.000Z,99225.91
2023-07-24T03:00:43.072Z,99229.25
2023-07-24T03:03:46.057Z,99230.38
2023-07-24T03:06:48.863Z,99220.53
2023-07-24T03:09:53.315Z,99227.88
2023-07-24T03:12:57.513Z,99226.91
2023-07-24T03:16:00.601Z,99227.88
2023-07-24T03:19:03.444Z,99226.91
2023-07-24T03:22:06.270Z,99228.22
2023-07-24T03:25:09.509Z,99229.91
2023-07-24T03:28:13.712Z,99229.91
2023-07-24T03:31:16.643Z,99231.25
2023-07-24T03:34:19.568Z,99233.59
2023-07-24T03:37:22.337Z,99235.91
2023-07-24T03:40:25.140Z,99226.22
2023-07-24T03:43:29.281Z,99231.75
2023-07-24T03:46:32.436Z,99224.22
2023-07-24T03:49:36.164Z,99229.59
2023-07-24T03:52:38.942Z,99232.41
2023-07-24T03:55:41.769Z,99230.25
2023-07-24T03:58:45.988Z,99237.78
2023-07-24T04:01:49.249Z,99232.56
2023-07-24T04:04:52.017Z,99233.91
2023-07-24T04:07:54.940Z,99233.91
2023-07-24T04:10:57.742Z,99233.09
2023-07-24T04:14:01.964Z,99248.63
2023-07-24T04:17:04.947Z,99229.75
2023-07-24T04:20:10.133Z,99235.94
2023-07-24T04:23:12.920Z,99235.09
2023-07-24T04:26:15.783Z,99235.59
2023-07-24T04:29:24.754Z,99241.94
2023-07-24T04:32:28.551Z,99241.28
2023-07-24T04:35:31.395Z,99241.94
2023-07-24T04:38:34.229Z,99246.81
2023-07-24T04:41:37.079Z,99246.81
2023-07-24T04:44:41.327Z,99250.81
2023-07-24T04:47:44.706Z,99251.16
2023-07-24T04:50:47.578Z,99245.97
2023-07-24T04:53:50.344Z,99251.31
2023-07-24T04:56:53.268Z,99249.31
2023-07-24T04:59:57.460Z,99250.81
2023-07-24T05:03:00.257Z,99252.66
2023-07-24T05:06:03.124Z,99252.00
2023-07-24T05:09:05.990Z,99249.13
2023-07-24T05:12:09.147Z,99254.81
2023-07-24T05:15:13.500Z,99250.13
2023-07-24T05:18:16.361Z,99248.47
2023-07-24T05:21:19.225Z,99249.13
2023-07-24T05:24:22.041Z,99247.63
2023-07-24T05:27:25.016Z,99247.47
2023-07-24T05:30:29.590Z,99245.13
2023-07-24T05:33:32.499Z,99250.47
2023-07-24T05:36:35.292Z,99243.75
2023-07-24T05:39:38.093Z,99239.63
2023-07-24T05:42:43.795Z,99241.28
2023-07-24T05:45:48.017Z,99253.66
2023-07-24T05:48:51.075Z,99250.00
2023-07-24T05:51:55.249Z,99251.50
2023-07-24T05:54:58.027Z,99255.53
2023-07-24T05:58:00.847Z,99256.19
2023-07-24T06:01:05.752Z,99251.00
2023-07-24T06:04:08.784Z,99255.34
2023-07-24T06:07:11.664Z,99255.00
2023-07-24T06:10:14.628Z,99257.69
2023-07-24T06:13:18.530Z,99247.78
2023-07-24T06:16:22.784Z,99245.63
2023-07-24T06:19:25.600Z,99241.09
2023-07-24T06:22:28.509Z,99242.94
2023-07-24T06:25:31.395Z,99233.06
2023-07-24T06:28:34.616Z,99239.09
2023-07-24T06:31:38.938Z,99241.59
2023-07-24T06:34:41.805Z,99241.44
2023-07-24T06:37:44.685Z,99235.56
2023-07-24T06:40:47.584Z,99236.91
2023-07-24T06:43:50.530Z,99229.88
2023-07-24T06:46:54.698Z,99236.38
2023-07-24T06:49:58.659Z,99239.06
2023-07-24T06:53:01.486Z,99232.53
2023-07-24T06:56:04.957Z,99230.19
2023-07-24T06:59:07.732Z,99239.06
2023-07-24T07:02:11.925Z,99243.25
2023-07-24T07:05:14.736Z,99241.59
2023-07-24T07:08:17.546Z,99233.69
2023-07-24T07:11:20.347Z,99232.53
2023-07-24T07:14:23.107Z,99230.00
2023-07-24T07:17:27.308Z,99224.31
2023-07-24T07:20:30.110Z,99229.50
2023-07-24T07:23:33.055Z,99235.53
2023-07-24T07:26:35.935Z,99234.22
2023-07-24T07:29:38.768Z,99229.69
2023-07-24T07:32:42.970Z,99233.03
2023-07-24T07:35:45.809Z,99224.16
2023-07-24T07:38:48.604Z,99225.63
2023-07-24T07:41:56.041Z,99223.97
2023-07-24T07:45:04.624Z,99228.50
2023-07-24T07:48:08.901Z,99224.81
2023-07-24T07:51:12.245Z,99224.66
2023-07-24T07:54:15.052Z,99222.59
2023-07-24T07:57:18.014Z,99222.97
2023-07-24T08:00:21.010Z,99222.13
2023-07-24T08:03:25.190Z,99217.75
2023-07-24T08:06:28.549Z,99215.06
2023-07-24T08:09:33.731Z,99221.75
2023-07-24T08:12:36.562Z,99210.38
2023-07-24T08:15:39.951Z,99220.94
2023-07-24T08:18:44.118Z,99211.41
2023-07-24T08:21:46.948Z,99210.56
2023-07-24T08:24:51.712Z,99213.06
2023-07-24T08:28:05.484Z,99211.03
2023-07-24T08:31:09.305Z,99214.38
2023-07-24T08:34:13.524Z,99213.72
2023-07-24T08:37:16.353Z,99220.94
2023-07-24T08:40:19.348Z,99212.06
2023-07-24T08:43:23.985Z,99211.03
2023-07-24T08:46:27.295Z,99209.19
2023-07-24T08:49:32.242Z,99209.00
2023-07-24T08:52:36.898Z,99213.53
2023-07-24T08:55:40.599Z,99210.69
2023-07-24T08:58:43.627Z,99205.31
2023-07-24T09:01:46.677Z,99204.34
2023-07-24T09:04:51.090Z,99209.69
2023-07-24T09:07:55.023Z,99206.00
2023-07-24T09:10:57.916Z,99208.69
2023-07-24T09:14:00.764Z,99210.34
2023-07-24T09:17:04.172Z,99211.19
2023-07-24T09:20:09.587Z,99213.88
2023-07-24T09:23:17.238Z,99213.50
2023-07-24T09:26:22.080Z,99213.34
2023-07-24T09:29:32.367Z,99206.34
2023-07-24T09:32:35.438Z,99201.13
2023-07-24T09:35:39.664Z,99202.63
2023-07-24T09:38:43.351Z,99197.75
2023-07-24T09:41:49.576Z,99200.78
2023-07-24T09:44:52.384Z,99206.97
2023-07-24T09:48:02.757Z,99202.28
2023-07-24T09:51:13.293Z,99191.72
2023-07-24T09:54:20.481Z,99188.88
2023-07-24T09:57:24.077Z,99196.91
2023-07-24T10:00:27.579Z,99194.22
2023-07-24T10:03:30.938Z,99187.84
2023-07-24T10:06:35.497Z,99187.69
2023-07-24T10:09:39.111Z,99185.00
2023-07-24T10:12:42.532Z,99180.50
2023-07-24T10:15:46.267Z,99184.84
2023-07-24T10:21:55.169Z,99179.94
2023-07-24T10:24:58.254Z,99173.56
2023-07-24T10:28:08.481Z,99177.91
2023-07-24T10:31:22.228Z,99179.63
2023-07-24T10:34:25.223Z,99177.78
2023-07-24T10:37:37.086Z,99179.44
2023-07-24T10:40:39.960Z,99161.50
2023-07-24T10:43:45.997Z,99164.34
2023-07-24T10:46:50.917Z,99161.84
2023-07-24T10:49:53.694Z,99153.63
2023-07-24T10:52:58.722Z,99142.91
2023-07-24T10:56:02.369Z,99153.44
2023-07-24T10:59:06.488Z,99148.91
2023-07-24T11:02:11.285Z,99149.56
2023-07-24T11:05:14.828Z,99154.09
2023-07-24T11:08:20.062Z,99157.28
2023-07-24T11:11:23.664Z,99143.03
2023-07-24T11:14:26.625Z,99140.16
2023-07-24T11:17:36.248Z,99133.59
2023-07-24T11:20:40.001Z,99123.88
2023-07-24T11:23:48.349Z,99126.22
2023-07-24T11:26:53.470Z,99119.00
2023-07-24T11:29:56.382Z,99124.19
2023-07-24T11:33:00.447Z,99121.31
2023-07-24T11:36:03.241Z,99116.78
2023-07-24T11:39:07.406Z,99121.13
2023-07-24T11:42:10.492Z,99116.47
2023-07-24T11:45:13.509Z,99108.41
2023-07-24T11:48:16.875Z,99094.63
2023-07-24T11:51:19.830Z,99098.81
2023-07-24T11:54:24.411Z,99100.47
2023-07-24T11:57:27.252Z,99102.16
2023-07-24T12:00:30.260Z,99105.47
2023-07-24T12:03:33.245Z,99100.75
2023-07-24T12:06:36.168Z,99096.06
2023-07-24T12:09:40.379Z,99093.38
2023-07-24T12:12:47.360Z,99090.69
2023-07-24T12:15:50.624Z,99087.00
2023-07-24T12:18:53.519Z,99090.13
2023-07-24T12:21:56.436Z,99085.59
2023-07-24T12:25:00.589Z,99087.31
2023-07-24T12:28:03.525Z,99084.25
2023-07-24T12:31:07.151Z,99081.75
2023-07-24T12:34:10.046Z,99078.50
2023-07-24T12:37:12.913Z,99073.31
2023-07-24T12:40:17.100Z,99068.44
2023-07-24T12:43:19.924Z,99065.75
2023-07-24T12:46:22.709Z,99066.59
2023-07-24T12:49:25.717Z,99071.75
2023-07-24T12:52:28.607Z,99068.06
2023-07-24T12:55:32.873Z,99065.03
2023-07-24T12:58:35.713Z,99069.19
2023-07-24T13:01:38.480Z,99057.25
2023-07-24T13:04:41.549Z,99060.59
2023-07-24T13:07:44.382Z,99067.81
2023-07-24T13:10:48.614Z,99057.53
2023-07-24T13:13:52.089Z,99051.53
2023-07-24T13:16:56.127Z,99053.00
2023-07-24T13:19:59.012Z,99047.09
2023-07-24T13:23:01.783Z,99052.13
2023-07-24T13:26:06.001Z,99044.91
2023-07-24T13:29:08.879Z,99046.75
2023-07-24T13:32:11.694Z,99052.78
2023-07-24T13:35:16.303Z,99046.94
2023-07-24T13:38:22.056Z,99040.00
2023-07-24T13:41:26.806Z,99039.81
2023-07-24T13:44:29.674Z,99043.34
2023-07-24T13:47:32.524Z,99032.59
2023-07-24T13:50:35.412Z,99046.84
2023-07-24T13:53:38.262Z,99048.50
2023-07-24T13:56:42.449Z,99049.34
2023-07-24T13:59:45.262Z,99040.75
2023-07-24T14:02:48.144Z,99048.78
2023-07-24T14:05:51.051Z,99046.94
2023-07-24T14:08:53.827Z,99045.09
2023-07-24T14:11:58.010Z,99037.69
2023-07-24T14:15:00.854Z,99044.06
2023-07-24T14:18:03.708Z,99045.75
2023-07-24T14:21:06.640Z,99040.56
2023-07-24T14:24:09.485Z,99039.53
2023-07-24T14:27:13.690Z,99028.63
2023-07-24T14:30:16.564Z,99031.13
2023-07-24T14:33:19.896Z,99025.75
2023-07-24T14:36:22.735Z,99033.63
2023-07-24T14:39:25.632Z,99023.91
2023-07-24T14:42:29.878Z,99030.47
2023-07-24T14:45:32.710Z,99036.00
2023-07-24T14:48:35.518Z,99032.03
2023-07-24T14:51:38.628Z,99029.81
2023-07-24T14:54:41.453Z,99011.41
2023-07-24T14:57:45.639Z,99013.91
2023-07-24T15:00:48.538Z,99005.50
2023-07-24T15:03:52.003Z,99006.97
2023-07-24T15:06:54.983Z,99006.13
2023-07-24T15:09:57.755Z,99006.97
2023-07-24T15:13:02.491Z,99008.63
2023-07-24T15:16:05.594Z,99007.97
2023-07-24T15:19:08.401Z,99001.59
2023-07-24T15:22:11.295Z,99003.25
2023-07-24T15:25:14.188Z,99001.69
2023-07-24T15:28:18.464Z,99001.69
2023-07-24T15:31:21.297Z,98995.47
2023-07-24T15:34:24.169Z,98999.81
2023-07-24T15:37:27.133Z,98989.28
2023-07-24T15:40:30.112Z,98989.72
2023-07-24T15:43:34.294Z,98983.72
2023-07-24T15:46:37.181Z,98984.72
2023-07-24T15:49:40.074Z,98982.03
2023-07-24T15:52:43.038Z,98981.03
2023-07-24T15:55:45.831Z,98975.00
2023-07-24T15:58:51.471Z,98974.63
2023-07-24T16:01:54.283Z,98976.69
2023-07-24T16:04:57.267Z,98970.47
2023-07-24T16:08:00.060Z,98977.94
2023-07-24T16:11:03.292Z,98976.28
2023-07-24T16:14:07.602Z,98974.00
2023-07-24T16:17:10.474Z,98967.59
2023-07-24T16:20:13.539Z,98971.94
2023-07-24T16:26:36.652Z,98971.09
2023-07-24T16:29:40.936Z,98974.00
2023-07-24T16:32:49.226Z,98969.72
2023-07-24T16:35:52.818Z,98965.75
2023-07-24T16:38:55.865Z,98968.22
2023-07-24T16:41:58.825Z,98955.84
2023-07-24T16:45:02.986Z,98964.53
2023-07-24T16:48:06.775Z,98976.47
2023-07-24T16:51:09.820Z,98968.22
2023-07-24T16:54:12.724Z,98968.22
2023-07-24T16:57:16.859Z,98975.25
2023-07-24T17:00:21.335Z,98957.50
2023-07-24T17:03:24.291Z,98961.19
2023-07-24T17:06:27.314Z,98952.13
2023-07-24T17:09:30.179Z,98953.78
2023-07-24T17:12:32.939Z,98951.56
2023-07-24T17:15:37.130Z,98960.47
2023-07-24T17:18:39.991Z,98957.28
2023-07-24T17:21:42.791Z,98972.22
2023-07-24T17:24:45.577Z,98971.19
2023-07-24T17:27:48.469Z,98960.47
2023-07-24T17:30:53.167Z,98966.84
2023-07-24T17:33:56.084Z,98968.03
2023-07-24T17:37:00.398Z,98968.91
2023-07-24T17:40:04.207Z,98972.13
2023-07-24T17:43:06.988Z,98979.72
2023-07-24T17:46:11.283Z,98982.25
2023-07-24T17:49:14.113Z,98972.97
2023-07-24T17:52:16.980Z,98982.03
2023-07-24T17:55:19.794Z,98978.53
2023-07-24T17:58:22.694Z,98983.06
2023-07-24T18:01:27.000Z,98983.91
2023-07-24T18:04:30.010Z,98985.09
2023-07-24T18:07:32.867Z,98988.44
2023-07-24T18:10:35.690Z,98987.78
2023-07-24T18:13:38.538Z,98986.75
2023-07-24T18:16:42.717Z,98980.94
2023-07-24T18:19:46.058Z,98983.44
2023-07-24T18:22:50.762Z,98977.03
2023-07-24T18:25:53.575Z,98983.44
2023-07-24T18:28:57.609Z,98973.06
2023-07-24T18:32:03.438Z,98978.63
2023-07-24T18:35:06.778Z,98990.66
2023-07-24T18:38:10.994Z,98987.13
2023-07-24T18:41:13.829Z,98978.44
2023-07-24T18:44:16.715Z,98970.94
2023-07-24T18:47:20.966Z,98977.97
2023-07-24T18:50:23.774Z,98967.22
2023-07-24T18:53:26.556Z,98973.44
2023-07-24T18:56:29.359Z,98966.13
2023-07-24T18:59:33.370Z,98965.13
2023-07-24T19:02:37.627Z,98966.59
2023-07-24T19:05:40.502Z,98967.97
2023-07-24T19:08:43.369Z,98970.41
2023-07-24T19:11:46.137Z,98964.47
2023-07-24T19:14:48.967Z,98967.34
2023-07-24T19:17:53.224Z,98972.50
2023-07-24T19:20:56.013Z,98976.41
2023-07-24T19:23:58.855Z,98984.66
2023-07-24T19:27:01.760Z,98993.25
2023-07-24T19:30:07.611Z,99004.97
2023-07-24T19:33:11.975Z,98994.38
2023-07-24T19:36:14.797Z,99003.03
2023-07-24T19:39:17.578Z,99000.44
2023-07-24T19:42:20.372Z,98995.88
2023-07-24T19:45:23.145Z,98995.75
2023-07-24T19:48:27.497Z,98998.22
2023-07-24T19:51:30.774Z,98999.34
2023-07-24T19:54:33.833Z,98990.28
2023-07-24T19:57:36.746Z,98988.44
2023-07-24T20:00:39.529Z,98997.03
2023-07-24T20:03:43.847Z,98997.50
2023-07-24T20:06:46.761Z,98995.47
2023-07-24T20:09:51.747Z,98988.19
2023-07-24T20:12:54.691Z,98986.22
2023-07-24T20:15:58.380Z,98988.44
2023-07-24T20:19:02.683Z,98985.03
2023-07-24T20:22:05.957Z,98972.22
2023-07-24T20:25:09.174Z,98981.28
2023-07-24T20:28:12.017Z,98981.00
2023-07-24T20:31:14.841Z,98985.84
2023-07-24T20:34:19.074Z,98987.53
2023-07-24T20:37:21.923Z,98988.41
2023-07-24T20:40:24.796Z,99001.66
2023-07-24T20:43:27.599Z,98991.06
2023-07-24T20:46:30.466Z,98995.59
2023-07-24T20:49:36.305Z,98998.13
2023-07-24T20:52:40.206Z,98999.00
2023-07-24T20:55:43.163Z,98996.31
2023-07-24T20:58:46.254Z,98995.28
2023-07-24T21:01:49.122Z,98998.66
2023-07-24T21:04:56.332Z,98996.47
2023-07-24T21:08:00.093Z,98991.38
2023-07-24T21:11:04.050Z,98993.72
2023-07-24T21:14:07.043Z,98989.69
2023-07-24T21:17:09.936Z,98981.34
2023-07-24T21:20:14.664Z,98978.03
2023-07-24T21:23:17.854Z,98972.16
2023-07-24T21:26:20.702Z,98982.03
2023-07-24T21:29:23.485Z,98986.91
2023-07-24T21:32:26.323Z,98982.72
2023-07-24T21:35:30.537Z,98976.72
2023-07-24T21:38:33.634Z,98965.81
2023-07-24T21:41:36.770Z,98960.44
2023-07-24T21:44:39.897Z,98964.31
2023-07-24T21:47:42.757Z,98968.69
2023-07-24T21:50:49.986Z,98957.00
2023-07-24T21:53:52.777Z,98963.38
2023-07-24T21:56:55.745Z,98971.88
2023-07-24T21:59:58.552Z,98972.72
2023-07-24T22:03:01.395Z,98970.41
2023-07-24T22:06:07.535Z,98961.72
2023-07-24T22:09:10.719Z,98964.06
2023-07-24T22:12:13.565Z,98959.03
2023-07-24T22:15:16.521Z,98968.41
2023-07-24T22:18:19.334Z,98958.88
2023-07-24T22:21:23.549Z,98951.38
2023-07-24T22:24:26.574Z,98958.53
2023-07-24T22:27:29.743Z,98955.72
2023-07-24T22:30:32.612Z,98969.41
2023-07-24T22:33:35.922Z,98965.44
2023-07-24T22:36:41.206Z,98945.69
2023-07-24T22:39:44.108Z,98938.50
2023-07-24T22:42:46.854Z,98948.03
2023-07-24T22:45:50.007Z,98940.66
2023-07-24T22:48:52.891Z,98942.19
2023-07-24T22:51:57.148Z,98942.19
2023-07-24T22:57:16.499Z,98938.00
2023-07-24T23:00:19.338Z,98931.28
2023-07-24T23:03:22.560Z,98929.28
2023-07-24T23:06:25.766Z,98923.66
2023-07-24T23:09:28.626Z,98936.03
2023-07-24T23:12:32.846Z,98924.00
2023-07-24T23:15:35.736Z,98912.63
2023-07-24T23:18:39.049Z,98912.13
2023-07-24T23:21:42.398Z,98909.28
2023-07-24T23:24:45.276Z,98902.25
2023-07-24T23:27:50.431Z,98899.91
2023-07-24T23:30:53.319Z,98898.28
2023-07-24T23:33:56.148Z,98897.59
2023-07-24T23:36:58.955Z,98895.63
2023-07-24T23:40:01.734Z,98899.13
2023-07-24T23:43:05.950Z,98898.31
2023-07-24T23:46:12.341Z,98897.78
2023-07-24T23:49:15.182Z,98900.63
2023-07-24T23:52:18.035Z,98899.44
2023-07-24T23:55:21.078Z,98906.97
2023-07-24T23:58:25.270Z,98903.31
